sensor_id;sensor_type;location;lat;lon;timestamp;temperature;humidity
12015;DHT22;6066;48.138;16.402;2023-06-22T00:00:32;21.00;99.90
12015;DHT22;6066;48.138;16.402;2023-06-22T00:03:00;21.00;99.90
12015;DHT22;6066;48.138;16.402;2023-06-22T00:05:27;21.00;99.90
12015;DHT22;6066;48.138;16.402;2023-06-22T00:07:53;21.00;99.90
12015;DHT22;6066;48.138;16.402;2023-06-22T00:10:20;21.00;99.90
12015;DHT22;6066;48.138;16.402;2023-06-22T00:12:47;20.90;99.90
12015;DHT22;6066;48.138;16.402;2023-06-22T00:15:14;20.90;99.90
12015;DHT22;6066;48.138;16.402;2023-06-22T00:17:40;20.80;99.90
12015;DHT22;6066;48.138;16.402;2023-06-22T00:20:09;20.80;99.90
12015;DHT22;6066;48.138;16.402;2023-06-22T00:22:36;20.70;99.90
12015;DHT22;6066;48.138;16.402;2023-06-22T00:25:05;20.70;99.90
12015;DHT22;6066;48.138;16.402;2023-06-22T00:27:32;20.60;99.90
12015;DHT22;6066;48.138;16.402;2023-06-22T00:29:58;20.50;99.90
12015;DHT22;6066;48.138;16.402;2023-06-22T00:32:25;20.50;99.90
12015;DHT22;6066;48.138;16.402;2023-06-22T00:34:52;20.40;99.90
12015;DHT22;6066;48.138;16.402;2023-06-22T00:37:20;20.40;99.90
12015;DHT22;6066;48.138;16.402;2023-06-22T00:39:51;20.40;99.90
12015;DHT22;6066;48.138;16.402;2023-06-22T00:42:17;20.40;99.90
12015;DHT22;6066;48.138;16.402;2023-06-22T00:44:44;20.30;99.90
12015;DHT22;6066;48.138;16.402;2023-06-22T00:47:11;20.30;99.90
12015;DHT22;6066;48.138;16.402;2023-06-22T00:49:38;20.30;99.90
12015;DHT22;6066;48.138;16.402;2023-06-22T00:52:06;20.20;99.90
12015;DHT22;6066;48.138;16.402;2023-06-22T00:54:35;20.20;99.90
12015;DHT22;6066;48.138;16.402;2023-06-22T00:57:03;20.20;99.90
12015;DHT22;6066;48.138;16.402;2023-06-22T00:59:29;20.20;99.90
12015;DHT22;6066;48.138;16.402;2023-06-22T01:01:57;20.10;99.90
12015;DHT22;6066;48.138;16.402;2023-06-22T01:04:33;20.10;99.90
12015;DHT22;6066;48.138;16.402;2023-06-22T01:07:03;20.10;99.90
12015;DHT22;6066;48.138;16.402;2023-06-22T01:09:35;20.10;99.90
12015;DHT22;6066;48.138;16.402;2023-06-22T01:12:06;20.10;99.90
12015;DHT22;6066;48.138;16.402;2023-06-22T01:14:35;20.00;99.90
12015;DHT22;6066;48.138;16.402;2023-06-22T01:17:04;20.00;99.90
12015;DHT22;6066;48.138;16.402;2023-06-22T01:19:35;20.00;99.90
12015;DHT22;6066;48.138;16.402;2023-06-22T01:22:03;19.90;99.90
12015;DHT22;6066;48.138;16.402;2023-06-22T01:24:32;19.90;99.90
12015;DHT22;6066;48.138;16.402;2023-06-22T01:27:09;19.90;99.90
12015;DHT22;6066;48.138;16.402;2023-06-22T01:29:41;19.90;99.90
12015;DHT22;6066;48.138;16.402;2023-06-22T01:32:08;19.80;99.90
12015;DHT22;6066;48.138;16.402;2023-06-22T01:34:36;19.80;99.90
12015;DHT22;6066;48.138;16.402;2023-06-22T01:37:05;19.80;99.90
12015;DHT22;6066;48.138;16.402;2023-06-22T01:39:32;19.70;99.90
12015;DHT22;6066;48.138;16.402;2023-06-22T01:42:00;19.70;99.90
12015;DHT22;6066;48.138;16.402;2023-06-22T01:44:26;19.70;99.90
12015;DHT22;6066;48.138;16.402;2023-06-22T01:46:55;19.70;99.90
12015;DHT22;6066;48.138;16.402;2023-06-22T01:49:22;19.70;99.90
12015;DHT22;6066;48.138;16.402;2023-06-22T01:51:49;19.60;99.90
12015;DHT22;6066;48.138;16.402;2023-06-22T01:54:15;19.60;99.90
12015;DHT22;6066;48.138;16.402;2023-06-22T01:56:42;19.70;99.90
12015;DHT22;6066;48.138;16.402;2023-06-22T01:59:10;19.70;99.90
12015;DHT22;6066;48.138;16.402;2023-06-22T02:01:40;19.70;99.90
12015;DHT22;6066;48.138;16.402;2023-06-22T02:04:11;19.70;99.90
12015;DHT22;6066;48.138;16.402;2023-06-22T02:06:39;19.70;99.90
12015;DHT22;6066;48.138;16.402;2023-06-22T02:09:09;19.70;99.90
12015;DHT22;6066;48.138;16.402;2023-06-22T02:11:38;19.70;99.90
12015;DHT22;6066;48.138;16.402;2023-06-22T02:14:06;19.60;99.90
12015;DHT22;6066;48.138;16.402;2023-06-22T02:16:33;19.60;99.90
12015;DHT22;6066;48.138;16.402;2023-06-22T02:19:03;19.60;99.90
12015;DHT22;6066;48.138;16.402;2023-06-22T02:21:32;19.50;99.90
12015;DHT22;6066;48.138;16.402;2023-06-22T02:23:59;19.50;99.90
12015;DHT22;6066;48.138;16.402;2023-06-22T02:26:26;19.50;99.90
12015;DHT22;6066;48.138;16.402;2023-06-22T02:28:53;19.50;99.90
12015;DHT22;6066;48.138;16.402;2023-06-22T02:31:20;19.40;99.90
12015;DHT22;6066;48.138;16.402;2023-06-22T02:33:46;19.40;99.90
12015;DHT22;6066;48.138;16.402;2023-06-22T02:36:13;19.40;99.90
12015;DHT22;6066;48.138;16.402;2023-06-22T02:38:42;19.40;99.90
12015;DHT22;6066;48.138;16.402;2023-06-22T02:41:13;19.40;99.90
12015;DHT22;6066;48.138;16.402;2023-06-22T02:43:43;19.40;99.90
12015;DHT22;6066;48.138;16.402;2023-06-22T02:46:10;19.40;99.90
12015;DHT22;6066;48.138;16.402;2023-06-22T02:48:38;19.40;99.90
12015;DHT22;6066;48.138;16.402;2023-06-22T02:51:05;19.40;99.90
12015;DHT22;6066;48.138;16.402;2023-06-22T02:53:33;19.40;99.90
12015;DHT22;6066;48.138;16.402;2023-06-22T02:56:01;19.40;99.90
12015;DHT22;6066;48.138;16.402;2023-06-22T02:58:30;19.40;99.90
12015;DHT22;6066;48.138;16.402;2023-06-22T03:00:58;19.40;99.90
12015;DHT22;6066;48.138;16.402;2023-06-22T03:03:29;19.40;99.90
12015;DHT22;6066;48.138;16.402;2023-06-22T03:05:56;19.40;99.90
12015;DHT22;6066;48.138;16.402;2023-06-22T03:08:23;19.40;99.90
12015;DHT22;6066;48.138;16.402;2023-06-22T03:10:50;19.40;99.90
12015;DHT22;6066;48.138;16.402;2023-06-22T03:13:18;19.50;99.90
12015;DHT22;6066;48.138;16.402;2023-06-22T03:15:44;19.50;99.90
12015;DHT22;6066;48.138;16.402;2023-06-22T03:18:11;19.40;99.90
12015;DHT22;6066;48.138;16.402;2023-06-22T03:20:38;19.50;99.90
12015;DHT22;6066;48.138;16.402;2023-06-22T03:23:07;19.50;99.90
12015;DHT22;6066;48.138;16.402;2023-06-22T03:25:34;19.50;99.90
12015;DHT22;6066;48.138;16.402;2023-06-22T03:28:01;19.50;99.90
12015;DHT22;6066;48.138;16.402;2023-06-22T03:30:29;19.50;99.90
12015;DHT22;6066;48.138;16.402;2023-06-22T03:32:56;19.50;99.90
12015;DHT22;6066;48.138;16.402;2023-06-22T03:35:23;19.60;99.90
12015;DHT22;6066;48.138;16.402;2023-06-22T03:37:49;19.60;99.90
12015;DHT22;6066;48.138;16.402;2023-06-22T03:40:16;19.60;99.90
12015;DHT22;6066;48.138;16.402;2023-06-22T03:42:43;19.70;99.90
12015;DHT22;6066;48.138;16.402;2023-06-22T03:45:10;19.70;99.90
12015;DHT22;6066;48.138;16.402;2023-06-22T03:47:38;19.80;99.90
12015;DHT22;6066;48.138;16.402;2023-06-22T03:50:05;19.80;99.90
12015;DHT22;6066;48.138;16.402;2023-06-22T03:52:32;19.80;99.90
12015;DHT22;6066;48.138;16.402;2023-06-22T03:54:58;19.90;99.90
12015;DHT22;6066;48.138;16.402;2023-06-22T03:57:25;20.00;99.90
12015;DHT22;6066;48.138;16.402;2023-06-22T03:59:53;20.00;99.90
12015;DHT22;6066;48.138;16.402;2023-06-22T04:02:20;20.00;99.90
12015;DHT22;6066;48.138;16.402;2023-06-22T04:04:48;20.00;99.90
12015;DHT22;6066;48.138;16.402;2023-06-22T04:07:15;20.10;99.90
12015;DHT22;6066;48.138;16.402;2023-06-22T04:09:43;20.10;99.90
12015;DHT22;6066;48.138;16.402;2023-06-22T04:12:10;20.10;99.90
12015;DHT22;6066;48.138;16.402;2023-06-22T04:14:36;20.20;99.90
12015;DHT22;6066;48.138;16.402;2023-06-22T04:17:03;20.20;99.90
12015;DHT22;6066;48.138;16.402;2023-06-22T04:19:30;20.20;99.90
12015;DHT22;6066;48.138;16.402;2023-06-22T04:21:58;20.20;99.90
12015;DHT22;6066;48.138;16.402;2023-06-22T04:24:25;20.30;99.90
12015;DHT22;6066;48.138;16.402;2023-06-22T04:26:52;20.30;99.90
12015;DHT22;6066;48.138;16.402;2023-06-22T04:29:20;20.40;99.90
12015;DHT22;6066;48.138;16.402;2023-06-22T04:31:46;20.40;99.90
12015;DHT22;6066;48.138;16.402;2023-06-22T04:34:16;20.40;99.90
12015;DHT22;6066;48.138;16.402;2023-06-22T04:36:43;20.50;99.90
12015;DHT22;6066;48.138;16.402;2023-06-22T04:39:11;20.50;99.90
12015;DHT22;6066;48.138;16.402;2023-06-22T04:41:38;20.60;99.90
12015;DHT22;6066;48.138;16.402;2023-06-22T04:44:09;20.70;99.90
12015;DHT22;6066;48.138;16.402;2023-06-22T04:46:36;20.70;99.90
12015;DHT22;6066;48.138;16.402;2023-06-22T04:49:04;20.80;99.90
12015;DHT22;6066;48.138;16.402;2023-06-22T04:51:39;20.90;99.90
12015;DHT22;6066;48.138;16.402;2023-06-22T04:54:06;20.90;99.90
12015;DHT22;6066;48.138;16.402;2023-06-22T04:56:34;21.00;99.90
12015;DHT22;6066;48.138;16.402;2023-06-22T04:59:01;21.10;99.90
12015;DHT22;6066;48.138;16.402;2023-06-22T05:01:28;21.10;99.90
12015;DHT22;6066;48.138;16.402;2023-06-22T05:03:56;21.10;99.90
12015;DHT22;6066;48.138;16.402;2023-06-22T05:06:23;21.20;99.90
12015;DHT22;6066;48.138;16.402;2023-06-22T05:08:51;21.20;99.90
12015;DHT22;6066;48.138;16.402;2023-06-22T05:11:17;21.30;99.90
12015;DHT22;6066;48.138;16.402;2023-06-22T05:13:45;21.30;99.90
12015;DHT22;6066;48.138;16.402;2023-06-22T05:16:12;21.40;99.90
12015;DHT22;6066;48.138;16.402;2023-06-22T05:18:39;21.40;99.90
12015;DHT22;6066;48.138;16.402;2023-06-22T05:21:07;21.50;99.90
12015;DHT22;6066;48.138;16.402;2023-06-22T05:23:33;21.50;99.90
12015;DHT22;6066;48.138;16.402;2023-06-22T05:26:00;21.50;99.90
12015;DHT22;6066;48.138;16.402;2023-06-22T05:28:27;21.60;99.90
12015;DHT22;6066;48.138;16.402;2023-06-22T05:30:55;21.60;99.90
12015;DHT22;6066;48.138;16.402;2023-06-22T05:33:22;21.70;99.90
12015;DHT22;6066;48.138;16.402;2023-06-22T05:35:49;21.70;99.90
12015;DHT22;6066;48.138;16.402;2023-06-22T05:38:15;21.70;99.90
12015;DHT22;6066;48.138;16.402;2023-06-22T05:40:42;21.80;99.90
12015;DHT22;6066;48.138;16.402;2023-06-22T05:43:09;21.80;99.90
12015;DHT22;6066;48.138;16.402;2023-06-22T05:45:35;21.90;99.90
12015;DHT22;6066;48.138;16.402;2023-06-22T05:48:04;21.90;99.90
12015;DHT22;6066;48.138;16.402;2023-06-22T05:50:31;21.90;99.90
12015;DHT22;6066;48.138;16.402;2023-06-22T05:52:57;22.00;99.90
12015;DHT22;6066;48.138;16.402;2023-06-22T05:55:24;22.00;99.90
12015;DHT22;6066;48.138;16.402;2023-06-22T05:57:51;22.10;99.90
12015;DHT22;6066;48.138;16.402;2023-06-22T06:00:18;22.10;99.90
12015;DHT22;6066;48.138;16.402;2023-06-22T06:02:45;22.20;99.90
12015;DHT22;6066;48.138;16.402;2023-06-22T06:05:13;22.20;99.90
12015;DHT22;6066;48.138;16.402;2023-06-22T06:07:40;22.30;99.90
12015;DHT22;6066;48.138;16.402;2023-06-22T06:10:07;22.30;99.90
12015;DHT22;6066;48.138;16.402;2023-06-22T06:12:34;22.40;99.90
12015;DHT22;6066;48.138;16.402;2023-06-22T06:15:01;22.40;99.90
12015;DHT22;6066;48.138;16.402;2023-06-22T06:17:27;22.50;99.90
12015;DHT22;6066;48.138;16.402;2023-06-22T06:19:54;22.60;99.90
12015;DHT22;6066;48.138;16.402;2023-06-22T06:22:22;22.60;99.90
12015;DHT22;6066;48.138;16.402;2023-06-22T06:24:49;22.60;99.90
12015;DHT22;6066;48.138;16.402;2023-06-22T06:27:16;22.70;99.90
12015;DHT22;6066;48.138;16.402;2023-06-22T06:29:44;22.80;99.90
12015;DHT22;6066;48.138;16.402;2023-06-22T06:32:13;22.90;99.90
12015;DHT22;6066;48.138;16.402;2023-06-22T06:34:40;22.90;99.90
12015;DHT22;6066;48.138;16.402;2023-06-22T06:37:08;22.90;99.90
12015;DHT22;6066;48.138;16.402;2023-06-22T06:39:36;23.00;99.90
12015;DHT22;6066;48.138;16.402;2023-06-22T06:42:04;23.00;99.90
12015;DHT22;6066;48.138;16.402;2023-06-22T06:44:31;23.00;99.90
12015;DHT22;6066;48.138;16.402;2023-06-22T06:46:58;23.10;99.90
12015;DHT22;6066;48.138;16.402;2023-06-22T06:49:25;23.20;99.90
12015;DHT22;6066;48.138;16.402;2023-06-22T06:51:51;23.30;99.90
12015;DHT22;6066;48.138;16.402;2023-06-22T06:54:18;23.40;99.90
12015;DHT22;6066;48.138;16.402;2023-06-22T06:56:47;23.50;99.90
12015;DHT22;6066;48.138;16.402;2023-06-22T06:59:14;23.50;99.90
12015;DHT22;6066;48.138;16.402;2023-06-22T07:01:41;23.60;99.90
12015;DHT22;6066;48.138;16.402;2023-06-22T07:04:09;23.60;99.90
12015;DHT22;6066;48.138;16.402;2023-06-22T07:06:36;23.70;99.90
12015;DHT22;6066;48.138;16.402;2023-06-22T07:09:03;23.90;99.90
12015;DHT22;6066;48.138;16.402;2023-06-22T07:11:29;23.90;99.90
12015;DHT22;6066;48.138;16.402;2023-06-22T07:13:58;24.00;99.90
12015;DHT22;6066;48.138;16.402;2023-06-22T07:16:26;24.10;99.90
12015;DHT22;6066;48.138;16.402;2023-06-22T07:18:53;24.10;99.90
12015;DHT22;6066;48.138;16.402;2023-06-22T07:21:21;24.20;99.90
12015;DHT22;6066;48.138;16.402;2023-06-22T07:23:47;24.30;99.90
12015;DHT22;6066;48.138;16.402;2023-06-22T07:26:14;24.40;99.90
12015;DHT22;6066;48.138;16.402;2023-06-22T07:28:42;24.50;99.90
12015;DHT22;6066;48.138;16.402;2023-06-22T07:31:10;24.60;99.90
12015;DHT22;6066;48.138;16.402;2023-06-22T07:33:37;24.70;99.90
12015;DHT22;6066;48.138;16.402;2023-06-22T07:36:03;24.80;99.90
12015;DHT22;6066;48.138;16.402;2023-06-22T07:38:33;24.90;99.90
12015;DHT22;6066;48.138;16.402;2023-06-22T07:41:00;24.90;99.90
12015;DHT22;6066;48.138;16.402;2023-06-22T07:43:27;25.00;99.90
12015;DHT22;6066;48.138;16.402;2023-06-22T07:45:55;25.10;99.90
12015;DHT22;6066;48.138;16.402;2023-06-22T07:48:23;25.10;99.90
12015;DHT22;6066;48.138;16.402;2023-06-22T07:50:50;25.20;99.90
12015;DHT22;6066;48.138;16.402;2023-06-22T07:53:18;25.20;99.90
12015;DHT22;6066;48.138;16.402;2023-06-22T07:55:45;25.20;99.90
12015;DHT22;6066;48.138;16.402;2023-06-22T07:58:12;25.20;99.90
12015;DHT22;6066;48.138;16.402;2023-06-22T08:00:38;25.30;99.90
12015;DHT22;6066;48.138;16.402;2023-06-22T08:03:05;25.30;99.90
12015;DHT22;6066;48.138;16.402;2023-06-22T08:05:33;25.40;99.90
12015;DHT22;6066;48.138;16.402;2023-06-22T08:08:00;25.50;99.90
12015;DHT22;6066;48.138;16.402;2023-06-22T08:10:27;25.60;99.90
12015;DHT22;6066;48.138;16.402;2023-06-22T08:12:53;25.60;99.90
12015;DHT22;6066;48.138;16.402;2023-06-22T08:15:20;25.70;99.90
12015;DHT22;6066;48.138;16.402;2023-06-22T08:17:47;25.90;99.90
12015;DHT22;6066;48.138;16.402;2023-06-22T08:20:14;26.00;99.90
12015;DHT22;6066;48.138;16.402;2023-06-22T08:22:42;26.10;99.90
12015;DHT22;6066;48.138;16.402;2023-06-22T08:25:09;26.10;99.90
12015;DHT22;6066;48.138;16.402;2023-06-22T08:27:36;26.20;99.90
12015;DHT22;6066;48.138;16.402;2023-06-22T08:30:03;26.20;99.90
12015;DHT22;6066;48.138;16.402;2023-06-22T08:32:30;26.30;99.90
12015;DHT22;6066;48.138;16.402;2023-06-22T08:34:58;26.40;99.90
12015;DHT22;6066;48.138;16.402;2023-06-22T08:37:24;26.50;99.90
12015;DHT22;6066;48.138;16.402;2023-06-22T08:39:57;26.60;99.90
12015;DHT22;6066;48.138;16.402;2023-06-22T08:42:23;26.60;99.90
12015;DHT22;6066;48.138;16.402;2023-06-22T08:44:51;26.70;99.90
12015;DHT22;6066;48.138;16.402;2023-06-22T08:47:18;26.80;99.90
12015;DHT22;6066;48.138;16.402;2023-06-22T08:49:44;26.90;99.90
12015;DHT22;6066;48.138;16.402;2023-06-22T08:52:11;27.00;99.90
12015;DHT22;6066;48.138;16.402;2023-06-22T08:54:38;27.00;99.90
12015;DHT22;6066;48.138;16.402;2023-06-22T08:57:06;27.10;99.90
12015;DHT22;6066;48.138;16.402;2023-06-22T08:59:33;27.20;99.90
12015;DHT22;6066;48.138;16.402;2023-06-22T09:01:59;27.30;99.90
12015;DHT22;6066;48.138;16.402;2023-06-22T09:04:26;27.40;99.90
12015;DHT22;6066;48.138;16.402;2023-06-22T09:06:53;27.50;99.90
12015;DHT22;6066;48.138;16.402;2023-06-22T09:09:20;27.70;99.90
12015;DHT22;6066;48.138;16.402;2023-06-22T09:11:47;27.70;99.90
12015;DHT22;6066;48.138;16.402;2023-06-22T09:14:15;27.80;99.90
12015;DHT22;6066;48.138;16.402;2023-06-22T09:16:42;27.90;99.90
12015;DHT22;6066;48.138;16.402;2023-06-22T09:19:09;27.90;99.90
12015;DHT22;6066;48.138;16.402;2023-06-22T09:21:35;27.90;99.90
12015;DHT22;6066;48.138;16.402;2023-06-22T09:24:02;27.90;99.90
12015;DHT22;6066;48.138;16.402;2023-06-22T09:26:29;27.90;99.90
12015;DHT22;6066;48.138;16.402;2023-06-22T09:28:56;28.00;99.90
12015;DHT22;6066;48.138;16.402;2023-06-22T09:31:24;28.00;99.90
12015;DHT22;6066;48.138;16.402;2023-06-22T09:33:52;28.00;99.90
12015;DHT22;6066;48.138;16.402;2023-06-22T09:36:19;28.10;99.90
12015;DHT22;6066;48.138;16.402;2023-06-22T09:38:46;28.20;99.90
12015;DHT22;6066;48.138;16.402;2023-06-22T09:41:12;28.30;99.90
12015;DHT22;6066;48.138;16.402;2023-06-22T09:43:39;28.40;99.90
12015;DHT22;6066;48.138;16.402;2023-06-22T09:46:06;28.40;99.90
12015;DHT22;6066;48.138;16.402;2023-06-22T09:48:36;28.40;99.90
12015;DHT22;6066;48.138;16.402;2023-06-22T09:51:02;28.60;99.90
12015;DHT22;6066;48.138;16.402;2023-06-22T09:53:29;28.60;99.90
12015;DHT22;6066;48.138;16.402;2023-06-22T09:55:56;28.60;99.90
12015;DHT22;6066;48.138;16.402;2023-06-22T09:58:23;28.60;99.90
12015;DHT22;6066;48.138;16.402;2023-06-22T10:00:50;28.60;99.90
12015;DHT22;6066;48.138;16.402;2023-06-22T10:03:16;28.70;99.90
12015;DHT22;6066;48.138;16.402;2023-06-22T10:05:44;28.80;99.90
12015;DHT22;6066;48.138;16.402;2023-06-22T10:08:11;28.90;99.90
12015;DHT22;6066;48.138;16.402;2023-06-22T10:10:38;29.00;99.90
12015;DHT22;6066;48.138;16.402;2023-06-22T10:13:07;29.00;99.90
12015;DHT22;6066;48.138;16.402;2023-06-22T10:15:34;29.00;99.90
12015;DHT22;6066;48.138;16.402;2023-06-22T10:18:01;29.10;99.90
12015;DHT22;6066;48.138;16.402;2023-06-22T10:20:27;29.10;99.90
12015;DHT22;6066;48.138;16.402;2023-06-22T10:22:55;29.10;99.90
12015;DHT22;6066;48.138;16.402;2023-06-22T10:25:22;29.20;99.90
12015;DHT22;6066;48.138;16.402;2023-06-22T10:27:49;29.20;99.90
12015;DHT22;6066;48.138;16.402;2023-06-22T10:30:16;29.20;99.90
12015;DHT22;6066;48.138;16.402;2023-06-22T10:32:42;29.20;99.90
12015;DHT22;6066;48.138;16.402;2023-06-22T10:35:09;29.30;99.90
12015;DHT22;6066;48.138;16.402;2023-06-22T10:37:38;29.30;99.90
12015;DHT22;6066;48.138;16.402;2023-06-22T10:40:07;29.40;99.90
12015;DHT22;6066;48.138;16.402;2023-06-22T10:42:34;29.40;99.90
12015;DHT22;6066;48.138;16.402;2023-06-22T10:45:01;29.40;99.90
12015;DHT22;6066;48.138;16.402;2023-06-22T10:47:28;29.40;99.90
12015;DHT22;6066;48.138;16.402;2023-06-22T10:49:54;29.50;99.90
12015;DHT22;6066;48.138;16.402;2023-06-22T10:52:21;29.50;99.90
12015;DHT22;6066;48.138;16.402;2023-06-22T10:54:48;29.50;99.90
12015;DHT22;6066;48.138;16.402;2023-06-22T10:57:16;29.50;99.90
12015;DHT22;6066;48.138;16.402;2023-06-22T10:59:42;29.50;99.90
12015;DHT22;6066;48.138;16.402;2023-06-22T11:02:09;29.60;99.90
12015;DHT22;6066;48.138;16.402;2023-06-22T11:04:36;29.60;99.90
12015;DHT22;6066;48.138;16.402;2023-06-22T11:07:03;29.50;99.90
12015;DHT22;6066;48.138;16.402;2023-06-22T11:09:29;29.50;99.90
12015;DHT22;6066;48.138;16.402;2023-06-22T11:11:57;29.60;99.90
12015;DHT22;6066;48.138;16.402;2023-06-22T11:14:25;29.60;99.90
12015;DHT22;6066;48.138;16.402;2023-06-22T11:16:52;29.70;99.90
12015;DHT22;6066;48.138;16.402;2023-06-22T11:19:19;29.70;99.90
12015;DHT22;6066;48.138;16.402;2023-06-22T11:21:46;29.80;99.90
12015;DHT22;6066;48.138;16.402;2023-06-22T11:24:12;29.80;99.90
12015;DHT22;6066;48.138;16.402;2023-06-22T11:26:39;29.80;99.90
12015;DHT22;6066;48.138;16.402;2023-06-22T11:29:06;29.80;99.90
12015;DHT22;6066;48.138;16.402;2023-06-22T11:31:35;29.80;99.90
12015;DHT22;6066;48.138;16.402;2023-06-22T11:34:02;29.80;99.90
12015;DHT22;6066;48.138;16.402;2023-06-22T11:36:29;29.80;99.90
12015;DHT22;6066;48.138;16.402;2023-06-22T11:38:58;29.80;99.90
12015;DHT22;6066;48.138;16.402;2023-06-22T11:41:25;29.90;99.90
12015;DHT22;6066;48.138;16.402;2023-06-22T11:43:52;30.00;99.90
12015;DHT22;6066;48.138;16.402;2023-06-22T11:46:18;30.00;99.90
12015;DHT22;6066;48.138;16.402;2023-06-22T11:48:47;30.00;99.90
12015;DHT22;6066;48.138;16.402;2023-06-22T11:51:13;30.10;99.90
12015;DHT22;6066;48.138;16.402;2023-06-22T11:53:41;30.10;99.90
12015;DHT22;6066;48.138;16.402;2023-06-22T11:56:07;30.10;99.90
12015;DHT22;6066;48.138;16.402;2023-06-22T11:58:34;30.10;99.90
12015;DHT22;6066;48.138;16.402;2023-06-22T12:01:01;30.10;99.90
12015;DHT22;6066;48.138;16.402;2023-06-22T12:03:27;30.10;99.90
12015;DHT22;6066;48.138;16.402;2023-06-22T12:05:56;30.20;99.90
12015;DHT22;6066;48.138;16.402;2023-06-22T12:08:23;30.20;99.90
12015;DHT22;6066;48.138;16.402;2023-06-22T12:10:50;30.20;99.90
12015;DHT22;6066;48.138;16.402;2023-06-22T12:13:17;30.20;99.90
12015;DHT22;6066;48.138;16.402;2023-06-22T12:15:46;30.10;99.90
12015;DHT22;6066;48.138;16.402;2023-06-22T12:18:13;30.10;99.90
12015;DHT22;6066;48.138;16.402;2023-06-22T12:20:40;30.10;99.90
12015;DHT22;6066;48.138;16.402;2023-06-22T12:23:08;30.10;99.90
12015;DHT22;6066;48.138;16.402;2023-06-22T12:25:35;30.20;99.90
12015;DHT22;6066;48.138;16.402;2023-06-22T12:28:01;30.20;99.90
12015;DHT22;6066;48.138;16.402;2023-06-22T12:30:29;30.20;99.90
12015;DHT22;6066;48.138;16.402;2023-06-22T12:32:56;30.20;99.90
12015;DHT22;6066;48.138;16.402;2023-06-22T12:35:23;30.20;99.90
12015;DHT22;6066;48.138;16.402;2023-06-22T12:37:50;30.30;99.90
12015;DHT22;6066;48.138;16.402;2023-06-22T12:40:18;30.30;99.90
12015;DHT22;6066;48.138;16.402;2023-06-22T12:42:45;30.40;99.90
12015;DHT22;6066;48.138;16.402;2023-06-22T12:45:11;30.40;99.90
12015;DHT22;6066;48.138;16.402;2023-06-22T12:47:38;30.50;99.90
12015;DHT22;6066;48.138;16.402;2023-06-22T12:50:05;30.50;99.90
12015;DHT22;6066;48.138;16.402;2023-06-22T12:52:32;30.50;99.90
12015;DHT22;6066;48.138;16.402;2023-06-22T12:54:59;30.50;99.90
12015;DHT22;6066;48.138;16.402;2023-06-22T12:57:29;30.50;99.90
12015;DHT22;6066;48.138;16.402;2023-06-22T12:59:56;30.50;99.90
12015;DHT22;6066;48.138;16.402;2023-06-22T13:02:24;30.50;99.90
12015;DHT22;6066;48.138;16.402;2023-06-22T13:04:50;30.60;99.90
12015;DHT22;6066;48.138;16.402;2023-06-22T13:07:17;30.70;99.90
12015;DHT22;6066;48.138;16.402;2023-06-22T13:09:44;30.70;99.90
12015;DHT22;6066;48.138;16.402;2023-06-22T13:12:11;30.70;99.90
12015;DHT22;6066;48.138;16.402;2023-06-22T13:14:40;30.70;99.90
12015;DHT22;6066;48.138;16.402;2023-06-22T13:17:06;30.70;99.90
12015;DHT22;6066;48.138;16.402;2023-06-22T13:19:33;30.80;99.90
12015;DHT22;6066;48.138;16.402;2023-06-22T13:22:00;30.80;99.90
12015;DHT22;6066;48.138;16.402;2023-06-22T13:24:27;30.80;99.90
12015;DHT22;6066;48.138;16.402;2023-06-22T13:26:54;30.80;99.90
12015;DHT22;6066;48.138;16.402;2023-06-22T13:29:21;30.80;99.90
12015;DHT22;6066;48.138;16.402;2023-06-22T13:31:49;30.80;99.90
12015;DHT22;6066;48.138;16.402;2023-06-22T13:34:16;30.70;99.90
12015;DHT22;6066;48.138;16.402;2023-06-22T13:36:42;30.80;99.90
12015;DHT22;6066;48.138;16.402;2023-06-22T13:39:09;30.70;99.90
12015;DHT22;6066;48.138;16.402;2023-06-22T13:41:36;30.80;99.90
12015;DHT22;6066;48.138;16.402;2023-06-22T13:44:02;30.80;99.90
12015;DHT22;6066;48.138;16.402;2023-06-22T13:46:29;30.80;99.90
12015;DHT22;6066;48.138;16.402;2023-06-22T13:48:57;30.90;99.90
12015;DHT22;6066;48.138;16.402;2023-06-22T13:51:24;31.00;99.90
12015;DHT22;6066;48.138;16.402;2023-06-22T13:53:51;30.80;99.90
12015;DHT22;6066;48.138;16.402;2023-06-22T13:56:17;30.80;99.90
12015;DHT22;6066;48.138;16.402;2023-06-22T13:58:44;30.80;99.90
12015;DHT22;6066;48.138;16.402;2023-06-22T14:01:11;30.80;99.90
12015;DHT22;6066;48.138;16.402;2023-06-22T14:03:37;30.70;99.90
12015;DHT22;6066;48.138;16.402;2023-06-22T14:06:06;30.60;99.90
12015;DHT22;6066;48.138;16.402;2023-06-22T14:08:35;30.60;99.90
12015;DHT22;6066;48.138;16.402;2023-06-22T14:11:02;30.60;99.90
12015;DHT22;6066;48.138;16.402;2023-06-22T14:13:29;30.50;99.90
12015;DHT22;6066;48.138;16.402;2023-06-22T14:15:56;30.50;99.90
12015;DHT22;6066;48.138;16.402;2023-06-22T14:18:23;30.50;99.90
12015;DHT22;6066;48.138;16.402;2023-06-22T14:20:49;30.50;99.90
12015;DHT22;6066;48.138;16.402;2023-06-22T14:23:17;30.40;99.90
12015;DHT22;6066;48.138;16.402;2023-06-22T14:25:45;30.40;99.90
12015;DHT22;6066;48.138;16.402;2023-06-22T14:28:13;30.40;99.90
12015;DHT22;6066;48.138;16.402;2023-06-22T14:30:41;30.40;99.90
12015;DHT22;6066;48.138;16.402;2023-06-22T14:33:08;30.40;99.90
12015;DHT22;6066;48.138;16.402;2023-06-22T14:35:35;30.50;99.90
12015;DHT22;6066;48.138;16.402;2023-06-22T14:38:01;30.60;99.90
12015;DHT22;6066;48.138;16.402;2023-06-22T14:40:30;30.60;99.90
12015;DHT22;6066;48.138;16.402;2023-06-22T14:42:56;30.60;99.90
12015;DHT22;6066;48.138;16.402;2023-06-22T14:45:23;30.50;99.90
12015;DHT22;6066;48.138;16.402;2023-06-22T14:47:50;30.60;99.90
12015;DHT22;6066;48.138;16.402;2023-06-22T14:50:16;30.60;99.90
12015;DHT22;6066;48.138;16.402;2023-06-22T14:52:43;30.60;99.90
12015;DHT22;6066;48.138;16.402;2023-06-22T14:55:10;30.60;99.90
12015;DHT22;6066;48.138;16.402;2023-06-22T14:57:38;30.50;99.90
12015;DHT22;6066;48.138;16.402;2023-06-22T15:00:06;30.40;99.90
12015;DHT22;6066;48.138;16.402;2023-06-22T15:02:33;30.30;99.90
12015;DHT22;6066;48.138;16.402;2023-06-22T15:04:59;30.20;99.90
12015;DHT22;6066;48.138;16.402;2023-06-22T15:07:26;30.10;99.90
12015;DHT22;6066;48.138;16.402;2023-06-22T15:09:53;30.00;99.90
12015;DHT22;6066;48.138;16.402;2023-06-22T15:12:19;29.90;99.90
12015;DHT22;6066;48.138;16.402;2023-06-22T15:14:48;29.80;99.90
12015;DHT22;6066;48.138;16.402;2023-06-22T15:17:15;29.70;99.90
12015;DHT22;6066;48.138;16.402;2023-06-22T15:19:42;29.70;99.90
12015;DHT22;6066;48.138;16.402;2023-06-22T15:22:08;29.80;99.90
12015;DHT22;6066;48.138;16.402;2023-06-22T15:24:35;29.90;99.90
12015;DHT22;6066;48.138;16.402;2023-06-22T15:27:02;29.90;99.90
12015;DHT22;6066;48.138;16.402;2023-06-22T15:29:31;30.00;99.90